Allison, Illinois
Current Conditions -  °F | °C
As of 1:53 PM on Thursday 30 Oct 2014 (Local Time) from KLWV Reporting Station
Clear Clear  
Wind Chill: 56°   Ceiling: Unl
Heat Index: 56°   Visibility: 10mi
Dew Point: 31°   Wind: 3mph
Humidity: 39%   Direction: NA
Pressure: 30.1"   Gusts: NA
Location:  38.7501°N, 87.6141°W
Report Text: KLWV 301853Z AUTO VRB03KT 10SM CLR 13/M01 A3010 RMK AO2 SLP194 T01331006
Loading
Personal Weather Stations






























Interactive Weather Map
Tropical Storm Tracking
New forecast layout! Learn more

10-Day Weather Forecast

Advertisements
Track Severe Weather on mobile